KAXN/AXN METAR and TAF weather

Enter ICAO airport designator
Station Type Date Time Source
KAXN METAR 2021/09/24 06:53 UTC NOAA

KAXN 240653Z AUTO 00000KT 10SM CLR 13/07 A2985 RMK AO2 SLP108 T01330072


Station Type Date Time Source
KAXN Decoded METAR 2021/09/24 06:53 UTC NOAA

CHANDLER FIELD, MN, United States (KAXN) 45-52N 095-24W 433M
Sep 24, 2021 - 02:53 AM EDT / 2021.09.24 0653 UTC
Wind: Calm:0
Visibility: 10 mile(s):0
Sky conditions: clear
Temperature: 55.9 F (13.3 C)
Dew Point: 45.0 F (7.2 C)
Relative Humidity: 66%
Pressure (altimeter): 29.85 in. Hg (1010 hPa)
ob: KAXN 240653Z AUTO 00000KT 10SM CLR 13/07 A2985 RMK AO2 SLP108 T01330072
cycle: 7

Station Type Date Time Source
KAXN TAF 2021/09/24 06:22 UTC NOAA

TAF KAXN 240520Z 2406/2506 16007KT P6SM SKC
FM240800 34007KT P6SM OVC100
TEMPO 2410/2412 -SHRA OVC050
FM241500 34014G22KT P6SM BKN100
FM241900 32014G22KT P6SM SKC
FM250000 29007KT P6SM SKC

Example: see airport list